This is the latest recevied weather packets stored in our database for station/object DG5TS-10. If no packets are shown the sender has not sent any weather packets the latest 10 day(s).
| Time | Temp. | Humidity | Pressure | Rain* | Wind** | Luminosity | Snow |
|---|---|---|---|---|---|---|---|
| 1777813820 | 27.78° C | 15% | 1012.3 hPa | - | - | - | - |
| 1777812920 | 27.78° C | 15% | 1012.5 hPa | - | - | - | - |
| 1777812020 | 27.78° C | 15% | 1012.6 hPa | - | - | - | - |
| 1777811120 | 28.33° C | 14% | 1012.7 hPa | - | - | - | - |
| 1777810219 | 27.78° C | 16% | 1012.6 hPa | - | - | - | - |
| 1777809319 | 27.78° C | 16% | 1012.5 hPa | - | - | - | - |
| 1777808419 | 28.89° C | 15% | 1013 hPa | - | - | - | - |
| 1777807519 | 28.33° C | 16% | 1013 hPa | - | - | - | - |
| 1777806619 | 28.89° C | 16% | 1013.1 hPa | - | - | - | - |
| 1777805719 | 30° C | 16% | 1013.2 hPa | - | - | - | - |
| 1777804819 | 30° C | 16% | 1013.2 hPa | - | - | - | - |
| 1777803919 | 30° C | 18% | 1013.3 hPa | - | - | - | - |
| 1777803019 | 28.89° C | 18% | 1013.2 hPa | - | - | - | - |
| 1777802118 | 27.78° C | 20% | 1013.2 hPa | - | - | - | - |
| 1777801218 | 28.33° C | 19% | 1013.2 hPa | - | - | - | - |
| 1777800318 | 28.33° C | 19% | 1013.2 hPa | - | - | - | - |
| 1777799418 | 28.33° C | 19% | 1013.2 hPa | - | - | - | - |
| 1777798518 | 28.33° C | 19% | 1013.5 hPa | - | - | - | - |
| 1777797618 | 27.22° C | 21% | 1013.4 hPa | - | - | - | - |
| 1777796718 | 26.67° C | 23% | 1013.4 hPa | - | - | - | - |
| 1777795817 | 26.11° C | 24% | 1013.7 hPa | - | - | - | - |
| 1777794917 | 25° C | 26% | 1013.5 hPa | - | - | - | - |
| 1777794017 | 23.89° C | 28% | 1013.5 hPa | - | - | - | - |
| 1777793117 | 22.78° C | 30% | 1013.6 hPa | - | - | - | - |
| 1777792217 | 22.22° C | 31% | 1013.6 hPa | - | - | - | - |
* Rain since midnight (hover to see other rain measurements)
** Current wind speed in m/s (hover to see current wind gust speed)